createdAt,value
2023-04-02T00:00:18.507Z,1.50
2023-04-02T00:03:22.523Z,0.90
2023-04-02T00:06:35.077Z,1.40
2023-04-02T00:09:38.548Z,1.65
2023-04-02T00:13:19.193Z,1.25
2023-04-02T00:16:25.059Z,1.67
2023-04-02T00:19:36.772Z,1.30
2023-04-02T00:22:44.820Z,1.38
2023-04-02T00:25:47.993Z,1.25
2023-04-02T00:28:52.445Z,1.40
2023-04-02T00:31:59.182Z,1.10
2023-04-02T00:35:02.781Z,1.03
2023-04-02T00:38:06.346Z,1.48
2023-04-02T00:41:16.664Z,1.15
2023-04-02T00:44:21.892Z,1.00
2023-04-02T00:47:32.055Z,1.20
2023-04-02T00:50:41.316Z,0.93
2023-04-02T00:53:47.539Z,1.10
2023-04-02T00:56:55.157Z,1.10
2023-04-02T01:00:16.010Z,1.10
2023-04-02T01:03:23.086Z,1.40
2023-04-02T01:06:37.395Z,1.57
2023-04-02T01:10:15.640Z,1.00
2023-04-02T01:13:25.233Z,1.05
2023-04-02T01:16:31.427Z,1.60
2023-04-02T01:19:52.879Z,1.20
2023-04-02T01:23:32.712Z,1.03
2023-04-02T01:26:58.081Z,1.20
2023-04-02T01:30:05.258Z,1.05
2023-04-02T01:33:08.499Z,1.25
2023-04-02T01:36:26.412Z,1.40
2023-04-02T01:39:57.038Z,1.30
2023-04-02T01:43:48.261Z,1.85
2023-04-02T01:46:51.564Z,1.00
2023-04-02T01:50:17.546Z,1.33
2023-04-02T01:53:23.173Z,1.53
2023-04-02T01:56:28.110Z,1.03
2023-04-02T01:59:33.377Z,1.10
2023-04-02T02:02:39.935Z,1.42
2023-04-02T02:05:44.092Z,1.40
2023-04-02T02:08:48.910Z,1.27
2023-04-02T02:11:52.574Z,1.43
2023-04-02T02:14:55.740Z,1.00
2023-04-02T02:18:05.532Z,1.20
2023-04-02T02:21:10.712Z,1.50
2023-04-02T02:24:32.556Z,1.03
2023-04-02T02:28:18.301Z,0.97
2023-04-02T02:31:29.747Z,0.95
2023-04-02T02:34:40.250Z,1.63
2023-04-02T02:37:48.025Z,2.78
2023-04-02T02:40:56.842Z,1.17
2023-04-02T02:44:06.675Z,1.10
2023-04-02T02:47:25.401Z,1.00
2023-04-02T02:50:31.898Z,0.90
2023-04-02T02:53:49.888Z,1.00
2023-04-02T02:56:59.635Z,1.33
2023-04-02T03:00:08.022Z,0.80
2023-04-02T03:03:17.089Z,1.40
2023-04-02T03:06:21.762Z,1.50
2023-04-02T03:09:42.084Z,1.30
2023-04-02T03:12:53.744Z,1.00
2023-04-02T03:16:20.846Z,1.00
2023-04-02T03:20:16.148Z,0.85
2023-04-02T03:23:32.611Z,1.05
2023-04-02T03:26:42.429Z,1.05
2023-04-02T03:30:02.222Z,1.60
2023-04-02T03:33:30.539Z,1.07
2023-04-02T03:36:59.011Z,1.20
2023-04-02T03:40:13.129Z,1.05
2023-04-02T03:43:26.240Z,1.10
2023-04-02T03:46:37.751Z,1.47
2023-04-02T03:49:56.429Z,1.40
2023-04-02T03:53:01.814Z,0.80
2023-04-02T03:56:07.728Z,1.48
2023-04-02T03:59:36.037Z,0.98
2023-04-02T04:02:50.112Z,1.30
2023-04-02T04:06:07.136Z,1.37
2023-04-02T04:09:20.986Z,2.05
2023-04-02T04:12:24.233Z,1.35
2023-04-02T04:15:35.165Z,1.13
2023-04-02T04:18:52.010Z,1.53
2023-04-02T04:22:10.150Z,1.10
2023-04-02T04:25:35.154Z,1.20
2023-04-02T04:29:12.744Z,1.20
2023-04-02T04:32:34.530Z,2.35
2023-04-02T04:35:50.182Z,2.10
2023-04-02T04:38:59.587Z,1.07
2023-04-02T04:42:07.579Z,1.38
2023-04-02T04:45:28.931Z,1.27
2023-04-02T04:49:08.587Z,1.50
2023-04-02T04:52:24.537Z,1.17
2023-04-02T04:55:35.321Z,0.97
2023-04-02T04:58:49.047Z,1.08
2023-04-02T05:02:05.980Z,1.35
2023-04-02T05:05:25.193Z,1.65
2023-04-02T05:08:35.903Z,1.60
2023-04-02T05:11:47.524Z,1.30
2023-04-02T05:15:03.001Z,1.05
2023-04-02T05:18:33.120Z,1.20
2023-04-02T05:21:47.405Z,1.40
2023-04-02T05:25:21.900Z,0.97
2023-04-02T05:28:37.131Z,1.57
2023-04-02T05:32:11.093Z,1.63
2023-04-02T05:35:21.250Z,0.93
2023-04-02T05:38:30.497Z,1.33
2023-04-02T05:41:46.052Z,1.30
2023-04-02T05:45:28.114Z,1.27
2023-04-02T05:48:43.504Z,0.90
2023-04-02T05:51:54.131Z,1.10
2023-04-02T05:55:48.248Z,1.73
2023-04-02T05:58:58.284Z,1.60
2023-04-02T06:02:31.063Z,1.57
2023-04-02T06:05:40.252Z,1.48
2023-04-02T06:08:52.278Z,1.30
2023-04-02T06:12:24.711Z,1.65
2023-04-02T06:15:28.044Z,1.30
2023-04-02T06:18:37.324Z,1.80
2023-04-02T06:21:45.443Z,1.30
2023-04-02T06:25:02.512Z,0.90
2023-04-02T06:28:17.347Z,1.30
2023-04-02T06:31:42.661Z,1.23
2023-04-02T06:34:47.988Z,1.23
2023-04-02T06:37:56.302Z,1.20
2023-04-02T06:41:12.923Z,1.00
2023-04-02T06:44:31.862Z,1.00
2023-04-02T06:48:04.279Z,1.33
2023-04-02T06:51:23.243Z,1.07
2023-04-02T06:54:26.452Z,1.48
2023-04-02T06:57:36.046Z,1.70
2023-04-02T07:00:43.840Z,1.23
2023-04-02T07:03:52.741Z,1.77
2023-04-02T07:07:07.093Z,2.70
2023-04-02T07:10:14.229Z,2.60
2023-04-02T07:13:25.049Z,2.35
2023-04-02T07:16:33.744Z,1.55
2023-04-02T07:19:37.012Z,2.30
2023-04-02T07:22:40.895Z,2.47
2023-04-02T07:25:44.590Z,2.58
2023-04-02T07:28:47.778Z,52.67
2023-04-02T07:31:53.019Z,14.88
2023-04-02T07:34:56.184Z,12.77
2023-04-02T07:37:59.112Z,9.57
2023-04-02T07:41:06.440Z,31.50
2023-04-02T07:44:11.074Z,26.13
2023-04-02T07:47:13.947Z,30.35
2023-04-02T07:50:18.017Z,44.15
2023-04-02T07:53:34.633Z,36.63
2023-04-02T07:56:38.694Z,7.65
2023-04-02T07:59:41.707Z,14.98
2023-04-02T08:02:45.593Z,11.68
2023-04-02T08:05:54.438Z,8.07
2023-04-02T08:08:58.649Z,2.53
2023-04-02T08:12:02.263Z,5.43
2023-04-02T08:15:07.115Z,1.70
2023-04-02T08:18:11.703Z,9.70
2023-04-02T08:21:16.538Z,3.80
2023-04-02T08:24:21.185Z,2.10
2023-04-02T08:27:26.077Z,1.10
2023-04-02T08:30:29.530Z,1.38
2023-04-02T08:33:32.792Z,1.48
2023-04-02T08:36:41.724Z,1.45
2023-04-02T08:39:45.128Z,1.40
2023-04-02T08:43:29.496Z,6.80
2023-04-02T08:46:36.402Z,2.22
2023-04-02T08:49:49.573Z,1.55
2023-04-02T08:52:53.171Z,1.33
2023-04-02T08:56:18.120Z,1.73
2023-04-02T08:59:33.732Z,1.55
2023-04-02T09:02:41.967Z,0.80
2023-04-02T09:05:47.330Z,1.25
2023-04-02T09:08:53.601Z,1.85
2023-04-02T09:12:04.411Z,13.60
2023-04-02T09:15:10.668Z,13.70
2023-04-02T09:18:19.301Z,9.70
2023-04-02T09:21:22.638Z,5.15
2023-04-02T09:24:26.216Z,9.07
2023-04-02T09:27:32.435Z,9.10
2023-04-02T09:30:43.510Z,7.20
2023-04-02T09:33:50.069Z,4.53
2023-04-02T09:36:53.142Z,3.58
2023-04-02T09:40:29.708Z,8.43
2023-04-02T09:43:38.154Z,8.57
2023-04-02T09:46:49.784Z,1.67
2023-04-02T09:49:53.007Z,3.33
2023-04-02T09:52:56.583Z,3.88
2023-04-02T09:56:26.708Z,3.83
2023-04-02T09:59:30.064Z,7.07
2023-04-02T10:02:33.591Z,2.60
2023-04-02T10:05:40.967Z,2.70
2023-04-02T10:08:45.813Z,5.20
2023-04-02T10:11:51.029Z,3.60
2023-04-02T10:14:56.511Z,3.43
2023-04-02T10:18:12.211Z,2.35
2023-04-02T10:21:23.792Z,2.40
2023-04-02T10:24:28.975Z,1.33
2023-04-02T10:27:45.368Z,2.40
2023-04-02T10:31:00.707Z,2.57
2023-04-02T10:34:17.639Z,1.35
2023-04-02T10:37:32.844Z,1.30
2023-04-02T10:40:39.882Z,1.40
2023-04-02T10:44:12.737Z,2.22
2023-04-02T10:47:27.334Z,0.97
2023-04-02T10:50:44.978Z,1.48
2023-04-02T10:53:54.848Z,1.88
2023-04-02T10:57:07.861Z,1.83
2023-04-02T11:00:11.579Z,1.10
2023-04-02T11:03:42.478Z,1.07
2023-04-02T11:07:03.544Z,1.33
2023-04-02T11:10:20.066Z,1.27
2023-04-02T11:13:31.585Z,0.82
2023-04-02T11:16:37.751Z,1.08
2023-04-02T11:19:44.414Z,1.43
2023-04-02T11:23:13.873Z,0.98
2023-04-02T11:26:42.998Z,1.90
2023-04-02T11:30:22.686Z,1.10
2023-04-02T11:33:48.134Z,1.10
2023-04-02T11:36:55.562Z,1.43
2023-04-02T11:40:06.205Z,1.10
2023-04-02T11:43:42.065Z,1.10
2023-04-02T11:46:45.855Z,1.27
2023-04-02T11:49:55.970Z,1.10
2023-04-02T11:53:03.259Z,0.90
2023-04-02T11:56:07.941Z,1.05
2023-04-02T11:59:36.583Z,0.85
2023-04-02T12:02:49.471Z,1.10
2023-04-02T12:06:06.439Z,1.13
2023-04-02T12:09:31.031Z,1.50
2023-04-02T12:12:40.557Z,0.90
2023-04-02T12:15:49.057Z,1.17
2023-04-02T12:18:54.666Z,2.83
2023-04-02T12:21:59.578Z,1.02
2023-04-02T12:25:05.323Z,0.70
2023-04-02T12:28:11.580Z,1.30
2023-04-02T12:31:19.678Z,1.00
2023-04-02T12:34:26.286Z,0.90
2023-04-02T12:37:30.863Z,1.20
2023-04-02T12:40:34.334Z,1.07
2023-04-02T12:43:38.280Z,1.35
2023-04-02T12:46:42.609Z,1.17
2023-04-02T12:49:47.363Z,1.10
2023-04-02T12:52:55.153Z,1.35
2023-04-02T12:55:58.709Z,0.97
2023-04-02T12:59:02.032Z,1.70
2023-04-02T13:02:31.093Z,1.95
2023-04-02T13:09:03.412Z,1.90
2023-04-02T13:12:21.098Z,1.27
2023-04-02T13:15:30.809Z,1.00
2023-04-02T13:18:37.298Z,1.50
2023-04-02T13:21:40.986Z,0.80
2023-04-02T13:24:44.547Z,1.02
2023-04-02T13:27:48.041Z,0.97
2023-04-02T13:30:51.312Z,1.00
2023-04-02T13:33:54.831Z,1.23
2023-04-02T13:36:58.361Z,1.20
2023-04-02T13:40:02.294Z,1.27
2023-04-02T13:43:08.213Z,1.57
2023-04-02T13:46:23.849Z,1.30
2023-04-02T13:49:27.984Z,0.80
2023-04-02T13:52:31.261Z,1.05
2023-04-02T13:55:41.649Z,1.00
2023-04-02T13:58:46.029Z,1.00
2023-04-02T14:01:52.585Z,0.90
2023-04-02T14:05:15.929Z,1.30
2023-04-02T14:08:50.814Z,1.58
2023-04-02T14:11:59.980Z,1.45
2023-04-02T14:15:30.722Z,1.37
2023-04-02T14:19:08.336Z,1.45
2023-04-02T14:22:26.523Z,1.67
2023-04-02T14:25:44.500Z,2.10
2023-04-02T14:29:16.612Z,2.40
2023-04-02T14:32:31.530Z,1.53
2023-04-02T14:35:43.612Z,1.38
2023-04-02T14:39:08.610Z,1.58
2023-04-02T14:42:31.387Z,1.15
2023-04-02T14:45:58.803Z,1.70
2023-04-02T14:49:15.571Z,1.43
2023-04-02T14:52:22.947Z,1.27
2023-04-02T14:55:47.074Z,1.13
2023-04-02T14:59:03.389Z,1.33
2023-04-02T15:02:33.076Z,1.30
2023-04-02T15:05:43.040Z,1.40
2023-04-02T15:09:08.299Z,2.03
2023-04-02T15:12:33.882Z,2.20
2023-04-02T15:15:41.572Z,1.30
2023-04-02T15:18:44.735Z,1.15
2023-04-02T15:22:21.790Z,1.30
2023-04-02T15:25:40.399Z,1.25
2023-04-02T15:28:55.088Z,1.20
2023-04-02T15:32:21.160Z,1.10
2023-04-02T15:35:41.719Z,1.92
2023-04-02T15:38:51.312Z,1.60
2023-04-02T15:42:09.749Z,1.40
2023-04-02T15:45:12.765Z,1.65
2023-04-02T15:48:23.542Z,1.25
2023-04-02T15:51:55.586Z,1.20
2023-04-02T15:55:22.871Z,1.80
2023-04-02T15:58:32.361Z,1.50
2023-04-02T16:01:40.933Z,1.42
2023-04-02T16:05:03.881Z,1.50
2023-04-02T16:08:25.288Z,1.50
2023-04-02T16:11:28.739Z,1.70
2023-04-02T16:14:33.783Z,1.60
2023-04-02T16:17:51.607Z,1.70
2023-04-02T16:20:57.349Z,1.85
2023-04-02T16:24:00.560Z,1.92
2023-04-02T16:27:15.072Z,2.27
2023-04-02T16:30:34.553Z,2.20
2023-04-02T16:34:15.734Z,3.17
2023-04-02T16:37:45.016Z,5.43
2023-04-02T16:41:26.322Z,4.40
2023-04-02T16:45:15.414Z,4.77
2023-04-02T16:48:43.451Z,5.97
2023-04-02T16:52:13.661Z,3.88
2023-04-02T16:55:52.326Z,3.15
2023-04-02T16:59:27.723Z,3.50
2023-04-02T17:03:15.097Z,5.83
2023-04-02T17:06:18.290Z,4.45
2023-04-02T17:09:50.092Z,4.22
2023-04-02T17:13:28.203Z,3.20
2023-04-02T17:16:41.040Z,4.70
2023-04-02T17:19:44.938Z,3.03
2023-04-02T17:22:49.041Z,2.85
2023-04-02T17:26:00.833Z,3.30
2023-04-02T17:29:09.556Z,3.47
2023-04-02T17:32:22.368Z,3.23
2023-04-02T17:35:55.444Z,3.50
2023-04-02T17:38:58.712Z,3.65
2023-04-02T17:42:29.069Z,4.65
2023-04-02T17:45:53.355Z,3.25
2023-04-02T17:49:36.988Z,3.47
2023-04-02T17:53:08.542Z,3.73
2023-04-02T17:56:24.087Z,4.30
2023-04-02T18:00:06.264Z,3.88
2023-04-02T18:03:49.603Z,3.75
2023-04-02T18:07:11.081Z,3.40
2023-04-02T18:10:52.941Z,5.87
2023-04-02T18:14:00.697Z,4.50
2023-04-02T18:17:26.204Z,4.25
2023-04-02T18:20:55.797Z,4.03
2023-04-02T18:24:14.121Z,4.73
2023-04-02T18:27:26.530Z,3.83
2023-04-02T18:30:54.070Z,5.03
2023-04-02T18:34:20.006Z,4.55
2023-04-02T18:37:49.750Z,4.32
2023-04-02T18:41:17.739Z,4.40
2023-04-02T18:44:29.278Z,4.27
2023-04-02T18:48:07.154Z,4.82
2023-04-02T18:51:18.781Z,4.43
2023-04-02T18:54:36.043Z,4.07
2023-04-02T18:57:42.498Z,4.60
2023-04-02T19:00:46.789Z,5.87
2023-04-02T19:04:02.733Z,4.82
2023-04-02T19:07:16.072Z,4.22
2023-04-02T19:10:35.448Z,4.97
2023-04-02T19:13:41.794Z,5.17
2023-04-02T19:17:04.700Z,7.23
2023-04-02T19:20:11.105Z,4.75
2023-04-02T19:23:14.518Z,5.18
2023-04-02T19:26:26.831Z,7.20
2023-04-02T19:29:42.615Z,5.47
2023-04-02T19:32:46.138Z,4.33
2023-04-02T19:35:58.900Z,5.25
2023-04-02T19:39:11.628Z,4.43
2023-04-02T19:42:44.256Z,3.90
2023-04-02T19:45:49.292Z,4.63
2023-04-02T19:49:12.398Z,4.27
2023-04-02T19:52:16.384Z,4.78
2023-04-02T19:55:19.827Z,5.22
2023-04-02T19:58:33.207Z,5.13
2023-04-02T20:01:36.647Z,4.53
2023-04-02T20:04:39.910Z,4.70
2023-04-02T20:07:42.821Z,4.05
2023-04-02T20:10:47.874Z,6.40
2023-04-02T20:13:52.948Z,5.32
2023-04-02T20:16:56.192Z,4.63
2023-04-02T20:19:59.552Z,5.50
2023-04-02T20:23:02.673Z,4.88
2023-04-02T20:26:06.833Z,4.30
2023-04-02T20:29:10.044Z,4.53
2023-04-02T20:32:13.756Z,5.53
2023-04-02T20:35:17.500Z,7.20
2023-04-02T20:38:20.788Z,4.80
2023-04-02T20:41:24.228Z,6.00
2023-04-02T20:44:28.604Z,6.22
2023-04-02T20:47:32.351Z,4.77
2023-04-02T20:50:35.731Z,5.90
2023-04-02T20:53:39.261Z,5.60
2023-04-02T20:56:45.476Z,5.10
2023-04-02T20:59:48.929Z,8.25
2023-04-02T21:02:52.254Z,6.50
2023-04-02T21:05:55.556Z,6.50
2023-04-02T21:08:59.306Z,5.50
2023-04-02T21:12:02.610Z,6.65
2023-04-02T21:15:06.773Z,4.45
2023-04-02T21:18:09.856Z,4.33
2023-04-02T21:21:14.142Z,6.87
2023-04-02T21:24:17.479Z,4.40
2023-04-02T21:27:23.768Z,5.45
2023-04-02T21:30:27.113Z,5.85
2023-04-02T21:33:32.761Z,5.27
2023-04-02T21:36:39.615Z,5.37
2023-04-02T21:39:42.922Z,4.93
2023-04-02T21:42:46.132Z,3.80
2023-04-02T21:45:49.067Z,5.47
2023-04-02T21:48:54.260Z,4.77
2023-04-02T21:51:57.310Z,3.53
2023-04-02T21:55:00.249Z,3.78
2023-04-02T21:58:03.506Z,4.32
2023-04-02T22:01:11.162Z,5.60
2023-04-02T22:04:20.838Z,5.03
2023-04-02T22:07:23.792Z,5.10
2023-04-02T22:10:27.187Z,4.30
2023-04-02T22:13:30.322Z,4.90
2023-04-02T22:16:35.172Z,4.63
2023-04-02T22:19:38.384Z,5.37
2023-04-02T22:22:41.843Z,4.43
2023-04-02T22:25:44.930Z,6.68
2023-04-02T22:28:48.116Z,4.35
2023-04-02T22:31:51.294Z,5.07
2023-04-02T22:34:54.554Z,6.40
2023-04-02T22:37:57.614Z,5.33
2023-04-02T22:41:03.910Z,5.63
2023-04-02T22:44:07.264Z,3.72
2023-04-02T22:47:10.790Z,3.90
2023-04-02T22:50:13.862Z,4.63
2023-04-02T22:53:17.098Z,4.03
2023-04-02T22:56:23.113Z,3.63
2023-04-02T22:59:26.894Z,4.03
2023-04-02T23:02:32.009Z,3.58
2023-04-02T23:05:35.077Z,4.73
2023-04-02T23:08:39.036Z,4.03
2023-04-02T23:11:43.016Z,3.53
2023-04-02T23:14:46.311Z,3.58
2023-04-02T23:17:49.328Z,4.45
2023-04-02T23:20:54.656Z,3.90
2023-04-02T23:23:58.301Z,3.13
2023-04-02T23:27:01.580Z,3.75
2023-04-02T23:30:05.614Z,3.45
2023-04-02T23:33:09.292Z,4.35
2023-04-02T23:36:30.870Z,3.80
2023-04-02T23:39:34.569Z,4.13
2023-04-02T23:42:37.768Z,5.30
2023-04-02T23:45:41.615Z,3.97
2023-04-02T23:48:46.074Z,4.70
2023-04-02T23:51:49.621Z,4.00
2023-04-02T23:54:52.542Z,5.03
2023-04-02T23:57:56.012Z,4.18
